sensor_id;sensor_type;location;lat;lon;timestamp;P1;durP1;ratioP1;P2;durP2;ratioP2
44452;SDS011;30155;52.164;21.236;2024-02-23T00:03:33;10.30;;;8.60;;
44452;SDS011;30155;52.164;21.236;2024-02-23T00:08:26;9.40;;;8.30;;
44452;SDS011;30155;52.164;21.236;2024-02-23T00:13:18;9.10;;;8.20;;
44452;SDS011;30155;52.164;21.236;2024-02-23T00:18:09;9.30;;;8.30;;
44452;SDS011;30155;52.164;21.236;2024-02-23T00:23:03;10.10;;;8.90;;
44452;SDS011;30155;52.164;21.236;2024-02-23T00:27:55;9.60;;;7.90;;
44452;SDS011;30155;52.164;21.236;2024-02-23T00:32:46;9.50;;;7.90;;
44452;SDS011;30155;52.164;21.236;2024-02-23T00:37:38;9.80;;;7.60;;
44452;SDS011;30155;52.164;21.236;2024-02-23T00:42:29;10.10;;;7.80;;
44452;SDS011;30155;52.164;21.236;2024-02-23T00:47:22;8.90;;;8.10;;
44452;SDS011;30155;52.164;21.236;2024-02-23T00:52:14;9.00;;;7.40;;
44452;SDS011;30155;52.164;21.236;2024-02-23T00:57:05;8.60;;;7.80;;
44452;SDS011;30155;52.164;21.236;2024-02-23T01:01:57;8.10;;;7.30;;
44452;SDS011;30155;52.164;21.236;2024-02-23T01:06:49;8.40;;;7.10;;
44452;SDS011;30155;52.164;21.236;2024-02-23T01:11:40;9.10;;;8.10;;
44452;SDS011;30155;52.164;21.236;2024-02-23T01:16:32;9.00;;;8.00;;
44452;SDS011;30155;52.164;21.236;2024-02-23T01:21:23;9.60;;;7.20;;
44452;SDS011;30155;52.164;21.236;2024-02-23T01:26:15;9.20;;;7.30;;
44452;SDS011;30155;52.164;21.236;2024-02-23T01:31:09;9.50;;;7.20;;
44452;SDS011;30155;52.164;21.236;2024-02-23T01:36:02;8.00;;;7.20;;
44452;SDS011;30155;52.164;21.236;2024-02-23T01:40:53;8.00;;;7.00;;
44452;SDS011;30155;52.164;21.236;2024-02-23T01:45:45;7.70;;;7.00;;
44452;SDS011;30155;52.164;21.236;2024-02-23T01:50:36;7.70;;;6.80;;
44452;SDS011;30155;52.164;21.236;2024-02-23T01:55:28;7.90;;;6.70;;
44452;SDS011;30155;52.164;21.236;2024-02-23T02:00:25;6.70;;;6.10;;
44452;SDS011;30155;52.164;21.236;2024-02-23T02:05:17;7.50;;;6.70;;
44452;SDS011;30155;52.164;21.236;2024-02-23T02:10:09;7.40;;;6.50;;
44452;SDS011;30155;52.164;21.236;2024-02-23T02:15:01;7.00;;;6.30;;
44452;SDS011;30155;52.164;21.236;2024-02-23T02:19:53;7.70;;;6.10;;
44452;SDS011;30155;52.164;21.236;2024-02-23T02:24:45;6.90;;;6.20;;
44452;SDS011;30155;52.164;21.236;2024-02-23T02:29:38;8.70;;;5.90;;
44452;SDS011;30155;52.164;21.236;2024-02-23T02:34:30;6.70;;;6.00;;
44452;SDS011;30155;52.164;21.236;2024-02-23T02:39:22;10.50;;;6.20;;
44452;SDS011;30155;52.164;21.236;2024-02-23T02:44:13;6.20;;;5.60;;
44452;SDS011;30155;52.164;21.236;2024-02-23T02:49:05;8.30;;;5.70;;
44452;SDS011;30155;52.164;21.236;2024-02-23T02:53:57;6.10;;;5.40;;
44452;SDS011;30155;52.164;21.236;2024-02-23T02:58:48;8.10;;;5.40;;
44452;SDS011;30155;52.164;21.236;2024-02-23T03:03:40;6.90;;;5.40;;
44452;SDS011;30155;52.164;21.236;2024-02-23T03:08:31;7.00;;;5.60;;
44452;SDS011;30155;52.164;21.236;2024-02-23T03:13:23;6.80;;;5.80;;
44452;SDS011;30155;52.164;21.236;2024-02-23T03:18:14;6.40;;;5.30;;
44452;SDS011;30155;52.164;21.236;2024-02-23T03:23:06;7.90;;;5.90;;
44452;SDS011;30155;52.164;21.236;2024-02-23T03:27:58;5.80;;;5.00;;
44452;SDS011;30155;52.164;21.236;2024-02-23T03:32:49;7.90;;;5.70;;
44452;SDS011;30155;52.164;21.236;2024-02-23T03:37:41;7.10;;;5.40;;
44452;SDS011;30155;52.164;21.236;2024-02-23T03:42:32;6.90;;;5.50;;
44452;SDS011;30155;52.164;21.236;2024-02-23T03:47:24;8.30;;;6.00;;
44452;SDS011;30155;52.164;21.236;2024-02-23T03:52:15;7.90;;;5.60;;
44452;SDS011;30155;52.164;21.236;2024-02-23T03:57:07;7.90;;;5.90;;
44452;SDS011;30155;52.164;21.236;2024-02-23T04:01:58;6.20;;;5.60;;
44452;SDS011;30155;52.164;21.236;2024-02-23T04:06:50;5.80;;;5.30;;
44452;SDS011;30155;52.164;21.236;2024-02-23T04:11:41;6.50;;;5.80;;
44452;SDS011;30155;52.164;21.236;2024-02-23T04:16:36;5.60;;;5.00;;
44452;SDS011;30155;52.164;21.236;2024-02-23T04:21:27;7.60;;;6.50;;
44452;SDS011;30155;52.164;21.236;2024-02-23T04:26:19;6.80;;;6.00;;
44452;SDS011;30155;52.164;21.236;2024-02-23T04:31:10;9.90;;;7.40;;
44452;SDS011;30155;52.164;21.236;2024-02-23T04:36:02;7.10;;;6.40;;
44452;SDS011;30155;52.164;21.236;2024-02-23T04:40:55;8.70;;;6.80;;
44452;SDS011;30155;52.164;21.236;2024-02-23T04:45:47;7.70;;;6.10;;
44452;SDS011;30155;52.164;21.236;2024-02-23T04:50:39;7.50;;;6.70;;
44452;SDS011;30155;52.164;21.236;2024-02-23T04:55:30;7.20;;;6.40;;
44452;SDS011;30155;52.164;21.236;2024-02-23T05:00:21;7.50;;;6.70;;
44452;SDS011;30155;52.164;21.236;2024-02-23T05:05:13;7.80;;;6.70;;
44452;SDS011;30155;52.164;21.236;2024-02-23T05:10:04;9.00;;;6.80;;
44452;SDS011;30155;52.164;21.236;2024-02-23T05:14:56;7.00;;;5.70;;
44452;SDS011;30155;52.164;21.236;2024-02-23T05:19:48;6.10;;;5.50;;
44452;SDS011;30155;52.164;21.236;2024-02-23T05:24:39;7.20;;;5.70;;
44452;SDS011;30155;52.164;21.236;2024-02-23T05:29:31;6.10;;;5.30;;
44452;SDS011;30155;52.164;21.236;2024-02-23T05:34:23;5.20;;;4.70;;
44452;SDS011;30155;52.164;21.236;2024-02-23T05:39:14;6.60;;;5.20;;
44452;SDS011;30155;52.164;21.236;2024-02-23T05:44:06;5.90;;;5.20;;
44452;SDS011;30155;52.164;21.236;2024-02-23T05:48:58;5.60;;;5.10;;
44452;SDS011;30155;52.164;21.236;2024-02-23T05:53:49;5.40;;;4.80;;
44452;SDS011;30155;52.164;21.236;2024-02-23T05:58:41;5.60;;;5.10;;
44452;SDS011;30155;52.164;21.236;2024-02-23T06:03:32;6.30;;;5.70;;
44452;SDS011;30155;52.164;21.236;2024-02-23T06:08:24;6.00;;;5.20;;
44452;SDS011;30155;52.164;21.236;2024-02-23T06:13:15;5.30;;;4.70;;
44452;SDS011;30155;52.164;21.236;2024-02-23T06:18:07;5.70;;;4.90;;
44452;SDS011;30155;52.164;21.236;2024-02-23T06:22:58;6.00;;;5.30;;
44452;SDS011;30155;52.164;21.236;2024-02-23T06:27:50;8.30;;;5.80;;
44452;SDS011;30155;52.164;21.236;2024-02-23T06:32:41;5.40;;;4.90;;
44452;SDS011;30155;52.164;21.236;2024-02-23T06:37:33;6.30;;;5.00;;
44452;SDS011;30155;52.164;21.236;2024-02-23T06:42:25;5.60;;;4.80;;
44452;SDS011;30155;52.164;21.236;2024-02-23T06:47:16;6.80;;;5.70;;
44452;SDS011;30155;52.164;21.236;2024-02-23T06:52:07;5.80;;;5.20;;
44452;SDS011;30155;52.164;21.236;2024-02-23T06:56:59;5.80;;;5.20;;
44452;SDS011;30155;52.164;21.236;2024-02-23T07:01:51;6.70;;;6.10;;
44452;SDS011;30155;52.164;21.236;2024-02-23T07:06:43;5.70;;;4.70;;
44452;SDS011;30155;52.164;21.236;2024-02-23T07:11:35;6.80;;;5.60;;
44452;SDS011;30155;52.164;21.236;2024-02-23T07:16:27;6.20;;;5.10;;
44452;SDS011;30155;52.164;21.236;2024-02-23T07:21:18;8.70;;;5.50;;
44452;SDS011;30155;52.164;21.236;2024-02-23T07:26:10;5.70;;;4.70;;
44452;SDS011;30155;52.164;21.236;2024-02-23T07:31:01;6.70;;;5.60;;
44452;SDS011;30155;52.164;21.236;2024-02-23T07:35:53;6.30;;;5.70;;
44452;SDS011;30155;52.164;21.236;2024-02-23T07:40:44;6.70;;;5.60;;
44452;SDS011;30155;52.164;21.236;2024-02-23T07:45:36;7.50;;;6.30;;
44452;SDS011;30155;52.164;21.236;2024-02-23T07:50:28;6.20;;;5.60;;
44452;SDS011;30155;52.164;21.236;2024-02-23T07:55:19;7.20;;;6.50;;
44452;SDS011;30155;52.164;21.236;2024-02-23T08:00:11;6.80;;;6.20;;
44452;SDS011;30155;52.164;21.236;2024-02-23T08:05:03;7.00;;;6.10;;
44452;SDS011;30155;52.164;21.236;2024-02-23T08:09:55;7.20;;;5.70;;
44452;SDS011;30155;52.164;21.236;2024-02-23T08:20:59;7.80;;;5.40;;
44452;SDS011;30155;52.164;21.236;2024-02-23T08:25:53;9.60;;;6.20;;
44452;SDS011;30155;52.164;21.236;2024-02-23T08:30:47;8.00;;;5.50;;
44452;SDS011;30155;52.164;21.236;2024-02-23T08:35:39;5.70;;;5.20;;
44452;SDS011;30155;52.164;21.236;2024-02-23T08:40:31;6.70;;;5.50;;
44452;SDS011;30155;52.164;21.236;2024-02-23T08:45:22;6.20;;;5.30;;
44452;SDS011;30155;52.164;21.236;2024-02-23T08:50:13;6.60;;;5.50;;
44452;SDS011;30155;52.164;21.236;2024-02-23T08:55:06;6.40;;;5.30;;
44452;SDS011;30155;52.164;21.236;2024-02-23T08:59:58;6.70;;;5.20;;
44452;SDS011;30155;52.164;21.236;2024-02-23T09:04:50;7.30;;;6.10;;
44452;SDS011;30155;52.164;21.236;2024-02-23T09:09:42;6.10;;;5.00;;
44452;SDS011;30155;52.164;21.236;2024-02-23T09:14:33;10.30;;;6.20;;
44452;SDS011;30155;52.164;21.236;2024-02-23T09:19:28;6.60;;;5.60;;
44452;SDS011;30155;52.164;21.236;2024-02-23T09:24:20;6.30;;;5.20;;
44452;SDS011;30155;52.164;21.236;2024-02-23T09:29:11;8.20;;;5.00;;
44452;SDS011;30155;52.164;21.236;2024-02-23T09:34:02;7.60;;;5.20;;
44452;SDS011;30155;52.164;21.236;2024-02-23T09:38:54;7.20;;;5.30;;
44452;SDS011;30155;52.164;21.236;2024-02-23T09:43:46;7.30;;;5.90;;
44452;SDS011;30155;52.164;21.236;2024-02-23T09:48:39;5.40;;;4.60;;
44452;SDS011;30155;52.164;21.236;2024-02-23T09:53:34;6.20;;;5.20;;
44452;SDS011;30155;52.164;21.236;2024-02-23T09:58:29;6.30;;;5.10;;
44452;SDS011;30155;52.164;21.236;2024-02-23T10:03:23;6.20;;;5.10;;
44452;SDS011;30155;52.164;21.236;2024-02-23T10:08:17;5.10;;;4.60;;
44452;SDS011;30155;52.164;21.236;2024-02-23T10:13:08;5.80;;;4.80;;
44452;SDS011;30155;52.164;21.236;2024-02-23T10:18:00;5.20;;;4.70;;
44452;SDS011;30155;52.164;21.236;2024-02-23T10:22:52;7.70;;;5.50;;
44452;SDS011;30155;52.164;21.236;2024-02-23T10:27:44;5.90;;;5.20;;
44452;SDS011;30155;52.164;21.236;2024-02-23T10:32:36;5.60;;;5.00;;
44452;SDS011;30155;52.164;21.236;2024-02-23T10:37:29;7.00;;;4.80;;
44452;SDS011;30155;52.164;21.236;2024-02-23T10:42:21;7.50;;;5.30;;
44452;SDS011;30155;52.164;21.236;2024-02-23T10:47:15;7.40;;;5.70;;
44452;SDS011;30155;52.164;21.236;2024-02-23T10:52:06;6.40;;;5.20;;
44452;SDS011;30155;52.164;21.236;2024-02-23T10:57:02;10.40;;;6.30;;
44452;SDS011;30155;52.164;21.236;2024-02-23T11:01:54;5.80;;;4.90;;
44452;SDS011;30155;52.164;21.236;2024-02-23T11:06:50;6.60;;;5.90;;
44452;SDS011;30155;52.164;21.236;2024-02-23T11:11:56;8.40;;;5.90;;
44452;SDS011;30155;52.164;21.236;2024-02-23T11:16:51;7.50;;;6.80;;
44452;SDS011;30155;52.164;21.236;2024-02-23T11:21:43;7.80;;;6.90;;
44452;SDS011;30155;52.164;21.236;2024-02-23T11:26:44;8.90;;;7.40;;
44452;SDS011;30155;52.164;21.236;2024-02-23T11:31:43;7.90;;;6.60;;
44452;SDS011;30155;52.164;21.236;2024-02-23T11:36:38;9.20;;;7.00;;
44452;SDS011;30155;52.164;21.236;2024-02-23T11:41:30;7.80;;;7.00;;
44452;SDS011;30155;52.164;21.236;2024-02-23T11:46:22;7.50;;;6.60;;
44452;SDS011;30155;52.164;21.236;2024-02-23T11:51:14;9.80;;;7.70;;
44452;SDS011;30155;52.164;21.236;2024-02-23T11:56:06;8.20;;;6.20;;
44452;SDS011;30155;52.164;21.236;2024-02-23T12:00:58;7.60;;;6.70;;
44452;SDS011;30155;52.164;21.236;2024-02-23T12:05:53;10.90;;;7.60;;
44452;SDS011;30155;52.164;21.236;2024-02-23T12:10:45;9.50;;;6.60;;
44452;SDS011;30155;52.164;21.236;2024-02-23T12:15:38;8.00;;;7.00;;
44452;SDS011;30155;52.164;21.236;2024-02-23T12:20:33;8.70;;;6.70;;
44452;SDS011;30155;52.164;21.236;2024-02-23T12:25:25;7.40;;;6.60;;
44452;SDS011;30155;52.164;21.236;2024-02-23T12:30:17;8.60;;;6.60;;
44452;SDS011;30155;52.164;21.236;2024-02-23T12:35:12;9.20;;;7.50;;
44452;SDS011;30155;52.164;21.236;2024-02-23T12:40:05;8.20;;;6.50;;
44452;SDS011;30155;52.164;21.236;2024-02-23T12:44:57;6.90;;;6.20;;
44452;SDS011;30155;52.164;21.236;2024-02-23T12:49:48;8.20;;;7.00;;
44452;SDS011;30155;52.164;21.236;2024-02-23T12:54:39;9.50;;;7.00;;
44452;SDS011;30155;52.164;21.236;2024-02-23T12:59:32;8.50;;;7.30;;
44452;SDS011;30155;52.164;21.236;2024-02-23T13:04:24;8.60;;;7.60;;
44452;SDS011;30155;52.164;21.236;2024-02-23T13:09:15;8.90;;;7.40;;
44452;SDS011;30155;52.164;21.236;2024-02-23T13:14:07;11.60;;;8.40;;
44452;SDS011;30155;52.164;21.236;2024-02-23T13:19:00;9.10;;;8.00;;
44452;SDS011;30155;52.164;21.236;2024-02-23T13:23:51;10.80;;;8.90;;
44452;SDS011;30155;52.164;21.236;2024-02-23T13:28:43;9.00;;;8.00;;
44452;SDS011;30155;52.164;21.236;2024-02-23T13:33:35;9.00;;;8.20;;
44452;SDS011;30155;52.164;21.236;2024-02-23T13:38:26;10.20;;;8.90;;
44452;SDS011;30155;52.164;21.236;2024-02-23T13:43:18;10.70;;;8.90;;
44452;SDS011;30155;52.164;21.236;2024-02-23T13:48:10;11.20;;;10.10;;
44452;SDS011;30155;52.164;21.236;2024-02-23T13:53:03;11.20;;;10.10;;
44452;SDS011;30155;52.164;21.236;2024-02-23T13:57:55;10.40;;;9.30;;
44452;SDS011;30155;52.164;21.236;2024-02-23T14:02:47;9.90;;;9.00;;
44452;SDS011;30155;52.164;21.236;2024-02-23T14:07:39;11.20;;;9.80;;
44452;SDS011;30155;52.164;21.236;2024-02-23T14:12:30;11.10;;;10.10;;
44452;SDS011;30155;52.164;21.236;2024-02-23T14:17:22;12.60;;;11.10;;
44452;SDS011;30155;52.164;21.236;2024-02-23T14:22:13;13.20;;;11.10;;
44452;SDS011;30155;52.164;21.236;2024-02-23T14:27:05;12.40;;;11.20;;
44452;SDS011;30155;52.164;21.236;2024-02-23T14:31:56;13.40;;;12.00;;
44452;SDS011;30155;52.164;21.236;2024-02-23T14:36:48;14.10;;;12.20;;
44452;SDS011;30155;52.164;21.236;2024-02-23T14:41:39;13.20;;;11.50;;
44452;SDS011;30155;52.164;21.236;2024-02-23T14:46:31;14.50;;;12.90;;
44452;SDS011;30155;52.164;21.236;2024-02-23T14:51:22;13.30;;;11.90;;
44452;SDS011;30155;52.164;21.236;2024-02-23T14:56:14;14.50;;;12.90;;
44452;SDS011;30155;52.164;21.236;2024-02-23T15:01:06;14.50;;;13.00;;
44452;SDS011;30155;52.164;21.236;2024-02-23T15:05:58;15.10;;;13.50;;
44452;SDS011;30155;52.164;21.236;2024-02-23T15:10:50;15.10;;;13.10;;
44452;SDS011;30155;52.164;21.236;2024-02-23T15:15:42;15.70;;;13.50;;
44452;SDS011;30155;52.164;21.236;2024-02-23T15:20:33;16.10;;;14.50;;
44452;SDS011;30155;52.164;21.236;2024-02-23T15:25:25;17.00;;;13.70;;
44452;SDS011;30155;52.164;21.236;2024-02-23T15:30:16;16.90;;;15.30;;
44452;SDS011;30155;52.164;21.236;2024-02-23T15:35:08;17.90;;;16.00;;
44452;SDS011;30155;52.164;21.236;2024-02-23T15:39:59;19.10;;;17.20;;
44452;SDS011;30155;52.164;21.236;2024-02-23T15:44:51;20.00;;;17.90;;
44452;SDS011;30155;52.164;21.236;2024-02-23T15:49:42;16.90;;;14.90;;
44452;SDS011;30155;52.164;21.236;2024-02-23T15:54:54;20.90;;;15.60;;
44452;SDS011;30155;52.164;21.236;2024-02-23T15:59:45;20.40;;;14.20;;
44452;SDS011;30155;52.164;21.236;2024-02-23T16:04:51;15.90;;;14.30;;
44452;SDS011;30155;52.164;21.236;2024-02-23T16:09:42;16.80;;;15.10;;
44452;SDS011;30155;52.164;21.236;2024-02-23T16:14:34;19.90;;;17.80;;
44452;SDS011;30155;52.164;21.236;2024-02-23T16:19:25;18.70;;;16.70;;
44452;SDS011;30155;52.164;21.236;2024-02-23T16:24:17;20.40;;;17.20;;
44452;SDS011;30155;52.164;21.236;2024-02-23T16:29:08;22.30;;;19.70;;
44452;SDS011;30155;52.164;21.236;2024-02-23T16:34:01;20.00;;;17.30;;
44452;SDS011;30155;52.164;21.236;2024-02-23T16:38:52;22.30;;;19.40;;
44452;SDS011;30155;52.164;21.236;2024-02-23T16:43:44;21.40;;;18.50;;
44452;SDS011;30155;52.164;21.236;2024-02-23T16:48:35;20.30;;;18.00;;
44452;SDS011;30155;52.164;21.236;2024-02-23T16:53:27;26.20;;;19.40;;
44452;SDS011;30155;52.164;21.236;2024-02-23T16:58:19;22.50;;;18.40;;
44452;SDS011;30155;52.164;21.236;2024-02-23T17:03:14;21.90;;;17.50;;
44452;SDS011;30155;52.164;21.236;2024-02-23T17:08:05;21.40;;;17.30;;
44452;SDS011;30155;52.164;21.236;2024-02-23T17:12:56;21.20;;;16.60;;
44452;SDS011;30155;52.164;21.236;2024-02-23T17:17:48;22.50;;;16.30;;
44452;SDS011;30155;52.164;21.236;2024-02-23T17:22:40;24.60;;;17.90;;
44452;SDS011;30155;52.164;21.236;2024-02-23T17:27:31;26.20;;;18.10;;
44452;SDS011;30155;52.164;21.236;2024-02-23T17:32:25;35.90;;;17.60;;
44452;SDS011;30155;52.164;21.236;2024-02-23T17:37:26;27.70;;;16.90;;
44452;SDS011;30155;52.164;21.236;2024-02-23T17:42:18;21.20;;;17.20;;
44452;SDS011;30155;52.164;21.236;2024-02-23T17:47:09;20.70;;;17.60;;
44452;SDS011;30155;52.164;21.236;2024-02-23T17:52:00;21.70;;;18.20;;
44452;SDS011;30155;52.164;21.236;2024-02-23T17:56:52;20.30;;;17.20;;
44452;SDS011;30155;52.164;21.236;2024-02-23T18:01:45;19.90;;;16.80;;
44452;SDS011;30155;52.164;21.236;2024-02-23T18:06:36;18.80;;;16.80;;
44452;SDS011;30155;52.164;21.236;2024-02-23T18:11:28;17.40;;;15.30;;
44452;SDS011;30155;52.164;21.236;2024-02-23T18:16:21;20.00;;;16.50;;
44452;SDS011;30155;52.164;21.236;2024-02-23T18:21:13;26.30;;;18.10;;
44452;SDS011;30155;52.164;21.236;2024-02-23T18:26:07;21.90;;;19.50;;
44452;SDS011;30155;52.164;21.236;2024-02-23T18:30:59;25.00;;;21.20;;
44452;SDS011;30155;52.164;21.236;2024-02-23T18:35:50;25.10;;;20.10;;
44452;SDS011;30155;52.164;21.236;2024-02-23T18:40:42;23.50;;;19.40;;
44452;SDS011;30155;52.164;21.236;2024-02-23T18:45:33;29.60;;;23.40;;
44452;SDS011;30155;52.164;21.236;2024-02-23T18:50:26;25.70;;;22.10;;
44452;SDS011;30155;52.164;21.236;2024-02-23T18:55:18;35.30;;;27.20;;
44452;SDS011;30155;52.164;21.236;2024-02-23T19:00:12;44.60;;;27.40;;
44452;SDS011;30155;52.164;21.236;2024-02-23T19:05:05;34.60;;;26.10;;
44452;SDS011;30155;52.164;21.236;2024-02-23T19:09:57;47.80;;;31.30;;
44452;SDS011;30155;52.164;21.236;2024-02-23T19:14:48;37.90;;;28.40;;
44452;SDS011;30155;52.164;21.236;2024-02-23T19:19:40;38.30;;;29.10;;
44452;SDS011;30155;52.164;21.236;2024-02-23T19:24:31;37.20;;;27.40;;
44452;SDS011;30155;52.164;21.236;2024-02-23T19:29:23;41.50;;;27.70;;
44452;SDS011;30155;52.164;21.236;2024-02-23T19:34:14;41.20;;;26.40;;
44452;SDS011;30155;52.164;21.236;2024-02-23T19:39:06;33.50;;;25.40;;
44452;SDS011;30155;52.164;21.236;2024-02-23T19:44:02;34.50;;;25.80;;
44452;SDS011;30155;52.164;21.236;2024-02-23T19:48:53;37.50;;;27.10;;
44452;SDS011;30155;52.164;21.236;2024-02-23T19:53:45;38.00;;;26.20;;
44452;SDS011;30155;52.164;21.236;2024-02-23T19:58:37;34.30;;;25.80;;
44452;SDS011;30155;52.164;21.236;2024-02-23T20:03:29;33.00;;;24.80;;
44452;SDS011;30155;52.164;21.236;2024-02-23T20:08:20;33.90;;;26.50;;
44452;SDS011;30155;52.164;21.236;2024-02-23T20:13:12;36.30;;;27.50;;
44452;SDS011;30155;52.164;21.236;2024-02-23T20:18:03;33.50;;;26.40;;
44452;SDS011;30155;52.164;21.236;2024-02-23T20:22:58;36.90;;;26.00;;
44452;SDS011;30155;52.164;21.236;2024-02-23T20:27:50;36.50;;;26.00;;
44452;SDS011;30155;52.164;21.236;2024-02-23T20:32:41;34.20;;;24.60;;
44452;SDS011;30155;52.164;21.236;2024-02-23T20:37:33;34.20;;;25.40;;
44452;SDS011;30155;52.164;21.236;2024-02-23T20:42:25;36.30;;;26.10;;
44452;SDS011;30155;52.164;21.236;2024-02-23T20:47:17;36.40;;;25.70;;
44452;SDS011;30155;52.164;21.236;2024-02-23T20:52:09;33.30;;;23.60;;
44452;SDS011;30155;52.164;21.236;2024-02-23T20:57:04;33.00;;;25.20;;
44452;SDS011;30155;52.164;21.236;2024-02-23T21:01:55;34.60;;;24.90;;
44452;SDS011;30155;52.164;21.236;2024-02-23T21:06:47;30.80;;;24.20;;
44452;SDS011;30155;52.164;21.236;2024-02-23T21:11:38;33.80;;;25.00;;
44452;SDS011;30155;52.164;21.236;2024-02-23T21:16:30;45.70;;;24.20;;
44452;SDS011;30155;52.164;21.236;2024-02-23T21:21:22;32.20;;;21.40;;
44452;SDS011;30155;52.164;21.236;2024-02-23T21:26:14;40.50;;;23.50;;
44452;SDS011;30155;52.164;21.236;2024-02-23T21:31:05;47.90;;;23.80;;
44452;SDS011;30155;52.164;21.236;2024-02-23T21:35:57;35.00;;;23.40;;
44452;SDS011;30155;52.164;21.236;2024-02-23T21:40:48;39.40;;;29.70;;
44452;SDS011;30155;52.164;21.236;2024-02-23T21:45:40;42.00;;;31.50;;
44452;SDS011;30155;52.164;21.236;2024-02-23T21:50:31;35.20;;;25.50;;
44452;SDS011;30155;52.164;21.236;2024-02-23T21:55:23;32.60;;;24.10;;
44452;SDS011;30155;52.164;21.236;2024-02-23T22:00:16;33.90;;;25.20;;
44452;SDS011;30155;52.164;21.236;2024-02-23T22:05:08;36.90;;;26.80;;
44452;SDS011;30155;52.164;21.236;2024-02-23T22:10:00;35.00;;;27.90;;
44452;SDS011;30155;52.164;21.236;2024-02-23T22:14:52;34.40;;;26.00;;
44452;SDS011;30155;52.164;21.236;2024-02-23T22:19:44;31.90;;;23.00;;
44452;SDS011;30155;52.164;21.236;2024-02-23T22:24:36;29.90;;;23.40;;
44452;SDS011;30155;52.164;21.236;2024-02-23T22:29:30;26.80;;;21.70;;
44452;SDS011;30155;52.164;21.236;2024-02-23T22:34:21;26.30;;;20.40;;
44452;SDS011;30155;52.164;21.236;2024-02-23T22:39:13;29.60;;;22.20;;
44452;SDS011;30155;52.164;21.236;2024-02-23T22:44:06;31.50;;;22.30;;
44452;SDS011;30155;52.164;21.236;2024-02-23T22:49:00;24.10;;;18.60;;
44452;SDS011;30155;52.164;21.236;2024-02-23T22:53:52;21.20;;;17.80;;
44452;SDS011;30155;52.164;21.236;2024-02-23T22:58:44;32.00;;;19.30;;
44452;SDS011;30155;52.164;21.236;2024-02-23T23:03:37;36.10;;;19.20;;
44452;SDS011;30155;52.164;21.236;2024-02-23T23:08:29;29.10;;;18.40;;
44452;SDS011;30155;52.164;21.236;2024-02-23T23:13:21;21.70;;;16.20;;
44452;SDS011;30155;52.164;21.236;2024-02-23T23:18:13;23.60;;;19.20;;
44452;SDS011;30155;52.164;21.236;2024-02-23T23:23:05;22.70;;;18.00;;
44452;SDS011;30155;52.164;21.236;2024-02-23T23:27:56;26.50;;;18.90;;
44452;SDS011;30155;52.164;21.236;2024-02-23T23:32:47;27.20;;;19.70;;
44452;SDS011;30155;52.164;21.236;2024-02-23T23:37:39;33.10;;;22.40;;
44452;SDS011;30155;52.164;21.236;2024-02-23T23:42:31;30.00;;;19.70;;
44452;SDS011;30155;52.164;21.236;2024-02-23T23:47:24;30.00;;;20.40;;
44452;SDS011;30155;52.164;21.236;2024-02-23T23:52:16;30.00;;;20.90;;
44452;SDS011;30155;52.164;21.236;2024-02-23T23:57:08;26.40;;;20.30;;
